Prairie Center, Illinois
Current Conditions -  °F | °C
As of 5:55 AM on Thursday 23 Oct 2014 (Local Time) from KVYS Reporting Station
Clear Clear  
Wind Chill:   Ceiling: Unl
Heat Index:   Visibility: 10mi
Dew Point:   Wind: 6mph
Humidity: 84%   Direction: 140°SE
Pressure: 30.2"   Gusts: NA
Location:  41.4349°N, 88.8687°W
Report Text: KVYS 231055Z AUTO 14005KT 10SM CLR 04/01 A3020 RMK AO2 T00350011
Loading
Personal Weather Stations






























Interactive Weather Map
Tropical Storm Tracking
New forecast layout! Learn more

10-Day Weather Forecast

Advertisements
Track Severe Weather on mobile